Time;durP1;ratioP1;P1;durP2;ratioP2;P2;SDS_P1;SDS_P2;PMS_P1;PMS_P2;Temp;Humidity;BMP_temperature;BMP_pressure;BME280_temperature;BME280_humidity;BME280_pressure;Samples;Min_cycle;Max_cycle;Signal;HPM_P1;HPM_P2
2023/07/31 00:00:42;;;;;;;4.33;2.30;;;16.40;98.00;;;;;;5054626;28;20462;-70
2023/07/31 00:03:10;;;;;;;3.00;2.10;;;16.30;98.00;;;;;;5052624;28;20540;-70
2023/07/31 00:05:37;;;;;;;4.47;2.50;;;16.40;98.00;;;;;;5053326;28;20511;-70
2023/07/31 00:08:04;;;;;;;3.93;2.30;;;16.20;98.00;;;;;;5054242;28;20506;-71
2023/07/31 00:10:31;;;;;;;3.93;2.37;;;16.40;98.00;;;;;;5054412;28;20457;-70
2023/07/31 00:12:58;;;;;;;2.80;2.23;;;16.10;98.00;;;;;;5052984;28;20454;-70
2023/07/31 00:15:29;;;;;;;2.40;1.80;;;16.00;98.00;;;;;;5054038;28;20477;-69
2023/07/31 00:17:56;;;;;;;2.60;2.03;;;15.90;98.00;;;;;;5054024;28;20943;-69
2023/07/31 00:20:24;;;;;;;2.87;2.10;;;15.90;98.00;;;;;;5053107;28;20997;-70
2023/07/31 00:22:51;;;;;;;3.67;2.27;;;15.90;98.00;;;;;;5052766;28;20456;-70
2023/07/31 00:25:18;;;;;;;3.27;2.17;;;15.90;98.00;;;;;;5054072;28;20928;-70
2023/07/31 00:27:46;;;;;;;3.30;2.40;;;16.00;98.00;;;;;;5053967;28;20461;-70
2023/07/31 00:30:13;;;;;;;5.73;2.50;;;15.90;98.00;;;;;;5054174;28;20450;-70
2023/07/31 00:32:41;;;;;;;5.00;2.10;;;15.80;98.00;;;;;;5054073;28;20458;-70
2023/07/31 00:35:09;;;;;;;2.67;2.10;;;15.90;98.00;;;;;;5053875;28;20477;-69
2023/07/31 00:37:36;;;;;;;2.77;2.07;;;15.90;98.00;;;;;;5053589;28;20470;-70
2023/07/31 00:40:03;;;;;;;5.60;2.10;;;15.80;98.00;;;;;;5052639;28;20457;-70
2023/07/31 00:42:30;;;;;;;4.70;2.17;;;15.80;98.00;;;;;;5052359;28;20544;-69
2023/07/31 00:44:58;;;;;;;3.40;2.00;;;15.90;98.00;;;;;;5054050;28;20457;-70
2023/07/31 00:47:25;;;;;;;3.40;2.23;;;15.80;98.00;;;;;;5052621;28;20460;-70
2023/07/31 00:49:54;;;;;;;4.13;2.00;;;15.90;98.00;;;;;;5053884;28;20465;-69
2023/07/31 00:52:21;;;;;;;4.53;2.17;;;15.90;98.00;;;;;;5053584;28;20493;-70
2023/07/31 00:54:49;;;;;;;4.90;2.20;;;15.80;98.00;;;;;;5052379;28;21010;-69
2023/07/31 00:57:16;;;;;;;3.50;2.30;;;15.70;98.00;;;;;;5053569;28;20457;-70
2023/07/31 00:59:43;;;;;;;3.53;2.40;;;15.80;98.00;;;;;;5053142;28;20528;-70
2023/07/31 01:02:11;;;;;;;5.90;2.40;;;15.70;98.00;;;;;;5052020;28;20462;-70
2023/07/31 01:04:38;;;;;;;3.00;2.20;;;15.70;98.00;;;;;;5053329;28;20446;-70
2023/07/31 01:07:13;;;;;;;3.17;2.10;;;15.70;98.00;;;;;;5053068;28;20952;-70
2023/07/31 01:09:48;;;;;;;6.07;2.37;;;15.80;98.00;;;;;;5053370;28;20453;-70
2023/07/31 01:12:17;;;;;;;3.77;2.47;;;15.80;98.00;;;;;;5053140;28;20462;-69
2023/07/31 01:14:52;;;;;;;15.23;2.33;;;15.70;98.00;;;;;;5051938;28;20496;-69
2023/07/31 01:17:19;;;;;;;6.57;2.20;;;15.60;98.00;;;;;;5052866;28;20484;-70
2023/07/31 01:19:48;;;;;;;3.50;2.33;;;15.70;98.00;;;;;;5052953;28;20453;-69
2023/07/31 01:22:35;;;;;;;3.63;2.20;;;15.60;98.00;;;;;;5051611;28;20466;-69
2023/07/31 01:25:16;;;;;;;5.93;2.20;;;15.40;98.00;;;;;;5053168;28;20999;-70
2023/07/31 01:27:52;;;;;;;3.83;2.10;;;15.10;98.00;;;;;;5052986;28;20466;-70
2023/07/31 01:30:24;;;;;;;9.50;2.43;;;15.00;98.00;;;;;;5053157;28;20457;-69
2023/07/31 01:32:53;;;;;;;2.93;2.10;;;15.00;98.00;;;;;;5052998;28;20457;-69
2023/07/31 01:35:20;;;;;;;3.50;2.13;;;15.00;98.00;;;;;;5052935;28;20468;-69
2023/07/31 01:37:47;;;;;;;3.27;2.20;;;14.90;98.00;;;;;;5052765;28;20832;-70
2023/07/31 01:40:14;;;;;;;5.10;2.50;;;15.00;98.00;;;;;;5052995;28;20461;-70
2023/07/31 01:42:41;;;;;;;2.40;2.00;;;15.00;98.00;;;;;;5053053;28;20458;-71
2023/07/31 01:45:11;;;;;;;5.17;2.20;;;14.90;98.00;;;;;;5051473;28;20966;-69
2023/07/31 01:47:38;;;;;;;3.90;2.47;;;15.10;98.00;;;;;;5052640;28;20465;-70
2023/07/31 01:50:06;;;;;;;4.23;2.40;;;15.10;98.00;;;;;;5052466;28;20465;-70
2023/07/31 01:52:33;;;;;;;8.23;2.30;;;15.00;98.00;;;;;;5051147;28;20453;-70
2023/07/31 01:55:00;;;;;;;2.77;2.13;;;15.00;98.00;;;;;;5052403;28;20462;-70
2023/07/31 01:57:27;;;;;;;3.67;2.50;;;15.00;98.00;;;;;;5052309;28;20891;-70
2023/07/31 01:59:55;;;;;;;3.57;2.60;;;15.10;98.00;;;;;;5052464;28;20817;-69
2023/07/31 02:02:24;;;;;;;4.87;2.60;;;15.00;98.00;;;;;;5050551;28;20465;-70
2023/07/31 02:04:51;;;;;;;4.40;2.03;;;15.00;98.00;;;;;;5052258;28;20452;-70
2023/07/31 02:07:18;;;;;;;2.83;2.00;;;15.00;98.00;;;;;;5051981;28;20457;-69
2023/07/31 02:09:46;;;;;;;2.83;2.00;;;15.00;98.00;;;;;;5052099;28;20461;-70
2023/07/31 02:12:14;;;;;;;2.73;2.10;;;14.90;98.00;;;;;;5052003;28;20453;-69
2023/07/31 02:14:41;;;;;;;5.37;2.30;;;14.90;98.00;;;;;;5052097;28;20496;-69
2023/07/31 02:17:08;;;;;;;6.40;2.30;;;15.00;98.00;;;;;;5050558;28;20487;-70
2023/07/31 02:19:37;;;;;;;4.03;2.03;;;15.00;98.00;;;;;;5050458;28;20954;-69
2023/07/31 02:22:05;;;;;;;2.97;1.97;;;14.70;98.00;;;;;;5051920;28;20915;-70
2023/07/31 02:24:33;;;;;;;6.17;2.13;;;14.70;98.00;;;;;;5052043;28;20874;-70
2023/07/31 02:27:00;;;;;;;6.40;2.10;;;14.60;98.00;;;;;;5052053;28;20453;-69
2023/07/31 02:29:27;;;;;;;5.50;2.20;;;14.60;98.00;;;;;;5052031;28;20515;-69
2023/07/31 02:31:54;;;;;;;2.53;2.00;;;14.50;98.00;;;;;;5051875;28;21086;-70
2023/07/31 02:34:21;;;;;;;2.50;2.03;;;14.50;98.00;;;;;;5052021;28;20456;-71
2023/07/31 02:36:49;;;;;;;3.30;2.03;;;14.50;98.00;;;;;;5051626;28;20483;-69
2023/07/31 02:39:17;;;;;;;3.83;1.90;;;14.60;98.00;;;;;;5052174;28;20472;-70
2023/07/31 02:41:44;;;;;;;3.47;2.00;;;14.60;98.00;;;;;;5051776;28;20555;-70
2023/07/31 02:44:14;;;;;;;2.73;1.83;;;14.80;98.00;;;;;;5050679;28;20453;-70
2023/07/31 02:46:41;;;;;;;2.50;1.87;;;14.70;98.00;;;;;;5051719;28;20450;-69
2023/07/31 02:49:08;;;;;;;2.60;2.00;;;14.70;98.00;;;;;;5051519;28;20985;-69
2023/07/31 02:51:35;;;;;;;5.90;2.50;;;14.80;98.00;;;;;;5051459;28;20454;-70
2023/07/31 02:54:03;;;;;;;4.47;2.33;;;14.80;98.00;;;;;;5050141;28;20461;-70
2023/07/31 02:56:30;;;;;;;2.53;2.00;;;14.70;98.00;;;;;;5051335;28;20489;-70
2023/07/31 02:58:57;;;;;;;6.00;2.20;;;14.60;98.00;;;;;;5051612;28;20518;-70
2023/07/31 03:01:24;;;;;;;3.27;2.30;;;14.50;98.00;;;;;;5051443;28;20830;-70
2023/07/31 03:03:52;;;;;;;4.30;2.53;;;14.40;98.00;;;;;;5051547;28;20454;-71
2023/07/31 03:06:19;;;;;;;2.60;1.90;;;14.50;98.00;;;;;;5051542;28;20467;-70
2023/07/31 03:08:46;;;;;;;3.10;2.00;;;14.50;98.00;;;;;;5051468;28;20825;-70
2023/07/31 03:11:14;;;;;;;5.70;2.20;;;14.40;98.00;;;;;;5051607;28;20462;-69
2023/07/31 03:13:41;;;;;;;5.07;2.33;;;14.40;98.00;;;;;;5052249;28;20464;-70
2023/07/31 03:16:08;;;;;;;4.20;2.30;;;14.40;98.00;;;;;;5054038;28;20477;-70
2023/07/31 03:18:37;;;;;;;3.90;2.40;;;14.50;98.00;;;;;;5055395;28;20455;-70
2023/07/31 03:21:05;;;;;;;3.70;2.40;;;14.50;98.00;;;;;;5055355;28;20461;-71
2023/07/31 03:23:32;;;;;;;4.00;2.27;;;14.70;98.00;;;;;;5055213;28;20467;-70
2023/07/31 03:26:01;;;;;;;4.73;2.47;;;14.70;98.00;;;;;;5055403;28;20461;-70
2023/07/31 03:28:29;;;;;;;3.57;2.20;;;14.80;98.00;;;;;;5054976;28;20461;-70
2023/07/31 03:30:57;;;;;;;3.60;2.57;;;14.90;98.00;;;;;;5055266;28;20451;-70
2023/07/31 03:33:24;;;;;;;4.53;2.27;;;14.70;98.00;;;;;;5055151;28;20456;-69
2023/07/31 03:35:51;;;;;;;5.50;2.30;;;14.60;98.00;;;;;;5055083;28;20820;-68
2023/07/31 03:38:18;;;;;;;4.20;2.30;;;14.50;98.00;;;;;;5054696;28;20465;-69
2023/07/31 03:40:46;;;;;;;3.27;2.23;;;14.50;98.00;;;;;;5054869;28;20464;-70
2023/07/31 03:43:13;;;;;;;3.83;2.30;;;14.50;98.00;;;;;;5053400;28;20929;-70
2023/07/31 03:45:42;;;;;;;4.00;2.33;;;14.60;98.00;;;;;;5054744;28;20452;-69
2023/07/31 03:48:09;;;;;;;3.00;2.00;;;14.40;98.00;;;;;;5054795;28;20453;-69
2023/07/31 03:50:36;;;;;;;3.07;2.10;;;14.40;98.00;;;;;;5054667;28;20456;-69
2023/07/31 03:53:03;;;;;;;3.27;2.20;;;14.40;98.00;;;;;;5054813;28;20823;-69
2023/07/31 03:55:30;;;;;;;3.73;2.13;;;14.40;98.00;;;;;;5053481;28;20452;-70
2023/07/31 03:57:59;;;;;;;4.87;2.40;;;14.40;98.00;;;;;;5053271;28;20481;-70
2023/07/31 04:00:27;;;;;;;3.70;2.20;;;14.30;98.00;;;;;;5054648;28;20453;-69
2023/07/31 04:02:56;;;;;;;7.43;2.43;;;14.30;98.00;;;;;;5054353;28;20465;-70
2023/07/31 04:05:23;;;;;;;3.40;2.10;;;14.20;98.00;;;;;;5054711;28;20464;-70
2023/07/31 04:07:50;;;;;;;2.97;2.07;;;14.30;98.00;;;;;;5054341;28;20449;-69
2023/07/31 04:10:17;;;;;;;2.83;2.10;;;14.40;98.00;;;;;;5053253;28;20453;-69
2023/07/31 04:12:44;;;;;;;4.17;2.43;;;14.30;98.00;;;;;;5054195;28;20460;-69
2023/07/31 04:15:11;;;;;;;4.93;2.30;;;14.30;98.00;;;;;;5054411;28;20468;-69
2023/07/31 04:17:38;;;;;;;3.40;2.33;;;14.40;98.00;;;;;;5054203;28;20487;-70
2023/07/31 04:20:08;;;;;;;3.43;2.10;;;14.60;98.00;;;;;;5054329;28;20449;-70
2023/07/31 04:22:35;;;;;;;2.77;2.07;;;14.50;98.00;;;;;;5052968;28;20484;-70
2023/07/31 04:25:02;;;;;;;4.80;2.20;;;14.50;98.00;;;;;;5052613;28;20460;-70
2023/07/31 04:27:29;;;;;;;4.93;2.10;;;14.60;98.00;;;;;;5054261;28;20479;-69
2023/07/31 04:29:56;;;;;;;5.90;2.40;;;14.60;98.00;;;;;;5052745;28;20462;-70
2023/07/31 04:32:27;;;;;;;5.80;2.17;;;14.60;98.00;;;;;;5053852;28;20457;-70
2023/07/31 04:34:54;;;;;;;3.40;2.13;;;14.60;98.00;;;;;;5053896;28;20963;-69
2023/07/31 04:37:24;;;;;;;5.93;2.40;;;14.60;98.00;;;;;;5053426;28;21022;-69
2023/07/31 04:39:51;;;;;;;5.13;2.33;;;14.70;98.00;;;;;;5053286;28;20529;-69
2023/07/31 04:42:18;;;;;;;3.97;2.57;;;14.70;98.00;;;;;;5053681;28;20581;-70
2023/07/31 04:44:45;;;;;;;7.10;2.40;;;14.80;98.00;;;;;;5053628;28;20449;-70
2023/07/31 04:47:12;;;;;;;3.83;2.30;;;14.90;98.00;;;;;;5052452;28;20815;-70
2023/07/31 04:49:39;;;;;;;3.33;2.23;;;14.90;98.00;;;;;;5053642;28;20453;-70
2023/07/31 04:52:06;;;;;;;9.20;2.20;;;15.00;98.00;;;;;;5053298;28;20498;-70
2023/07/31 04:54:35;;;;;;;4.73;2.20;;;15.10;98.00;;;;;;5053627;28;20457;-70
2023/07/31 04:57:04;;;;;;;6.37;2.33;;;15.20;98.00;;;;;;5052263;28;20492;-70
2023/07/31 04:59:31;;;;;;;3.83;2.30;;;15.30;98.00;;;;;;5053542;28;20454;-69
2023/07/31 05:01:58;;;;;;;2.83;2.10;;;15.50;98.00;;;;;;5053528;28;20446;-69
2023/07/31 05:04:25;;;;;;;3.40;2.37;;;15.70;98.00;;;;;;5053546;28;20456;-69
2023/07/31 05:06:52;;;;;;;2.93;2.27;;;15.80;98.00;;;;;;5053374;28;20453;-69
2023/07/31 05:09:19;;;;;;;4.37;2.40;;;15.80;98.00;;;;;;5053487;28;20801;-69
2023/07/31 05:11:49;;;;;;;4.00;2.40;;;15.80;98.00;;;;;;5053350;28;20492;-70
2023/07/31 05:14:16;;;;;;;3.33;2.37;;;15.90;98.00;;;;;;5053137;28;20446;-70
2023/07/31 05:16:43;;;;;;;2.80;2.10;;;15.90;98.00;;;;;;5053177;28;20481;-70
2023/07/31 05:19:10;;;;;;;3.40;2.10;;;15.90;98.00;;;;;;5053344;28;20527;-70
2023/07/31 05:21:37;;;;;;;5.40;2.50;;;16.00;98.00;;;;;;5053088;28;20456;-69
2023/07/31 05:24:04;;;;;;;4.47;2.40;;;16.00;98.00;;;;;;5053207;28;20457;-69
2023/07/31 05:26:32;;;;;;;2.70;2.20;;;16.10;98.00;;;;;;5051522;28;20465;-69
2023/07/31 05:29:01;;;;;;;8.77;2.40;;;16.20;98.00;;;;;;5051620;28;20511;-69
2023/07/31 05:31:28;;;;;;;5.03;2.40;;;16.20;98.00;;;;;;5052616;28;20461;-70
2023/07/31 05:33:55;;;;;;;3.07;2.40;;;16.30;98.00;;;;;;5052510;28;20788;-70
2023/07/31 05:36:22;;;;;;;2.90;2.40;;;16.40;98.00;;;;;;5051869;28;20469;-69
2023/07/31 05:38:49;;;;;;;7.23;2.83;;;16.40;98.00;;;;;;5051973;28;20462;-69
2023/07/31 05:41:18;;;;;;;9.70;2.10;;;16.40;98.00;;;;;;5052558;28;20453;-70
2023/07/31 05:43:45;;;;;;;3.70;2.10;;;16.50;98.00;;;;;;5052075;28;20460;-69
2023/07/31 05:46:14;;;;;;;4.17;2.40;;;16.60;98.00;;;;;;5052428;28;20457;-69
2023/07/31 05:48:41;;;;;;;3.67;2.17;;;16.60;98.00;;;;;;5052334;28;20457;-71
2023/07/31 05:51:08;;;;;;;3.83;2.43;;;16.80;98.00;;;;;;5052460;28;20516;-70
2023/07/31 05:53:39;;;;;;;3.63;2.30;;;16.80;98.00;;;;;;5050959;28;21195;-65
2023/07/31 05:56:06;;;;;;;2.53;2.07;;;16.80;98.00;;;;;;5052578;28;20519;-65
2023/07/31 05:58:33;;;;;;;4.47;2.50;;;16.90;98.00;;;;;;5051866;28;20477;-65
2023/07/31 06:01:00;;;;;;;2.50;2.17;;;16.90;98.00;;;;;;5052397;28;20514;-65
2023/07/31 06:03:28;;;;;;;3.40;2.13;;;17.00;98.00;;;;;;5052282;28;20461;-65
2023/07/31 06:05:55;;;;;;;5.90;2.60;;;17.20;98.00;;;;;;5052385;28;20458;-64
2023/07/31 06:08:22;;;;;;;3.77;2.60;;;17.30;98.00;;;;;;5052322;28;20795;-65
2023/07/31 06:10:49;;;;;;;2.83;1.97;;;17.40;98.00;;;;;;5052358;28;20453;-64
2023/07/31 06:13:16;;;;;;;3.90;2.20;;;17.50;98.00;;;;;;5052436;28;20813;-65
2023/07/31 06:15:44;;;;;;;2.60;2.17;;;17.70;98.00;;;;;;5052520;28;20534;-65
2023/07/31 06:18:12;;;;;;;2.80;2.20;;;17.80;98.00;;;;;;5052125;28;20852;-65
2023/07/31 06:20:43;;;;;;;3.30;2.27;;;17.80;98.00;;;;;;5052253;28;20450;-65
2023/07/31 06:23:10;;;;;;;4.10;2.40;;;17.80;98.00;;;;;;5051853;28;20461;-65
2023/07/31 06:25:37;;;;;;;3.07;2.00;;;17.90;98.00;;;;;;5051980;28;20461;-65
2023/07/31 06:28:04;;;;;;;3.10;2.20;;;18.00;98.00;;;;;;5051639;28;20453;-64
2023/07/31 06:30:35;;;;;;;4.10;2.50;;;18.00;98.00;;;;;;5051847;28;20586;-64
2023/07/31 06:33:02;;;;;;;3.37;2.30;;;18.00;98.00;;;;;;5051657;28;20453;-64
2023/07/31 06:35:29;;;;;;;3.00;1.90;;;18.10;98.00;;;;;;5051743;28;20450;-65
2023/07/31 06:37:58;;;;;;;3.70;2.30;;;18.20;98.00;;;;;;5051549;28;20493;-65
2023/07/31 06:40:25;;;;;;;3.93;2.13;;;18.30;98.00;;;;;;5051640;28;20511;-68
2023/07/31 06:42:52;;;;;;;2.23;1.93;;;18.40;98.00;;;;;;5051751;28;20507;-65
2023/07/31 06:45:19;;;;;;;3.90;2.47;;;18.50;98.00;;;;;;5051760;28;21152;-65
2023/07/31 06:47:48;;;;;;;3.90;2.30;;;18.60;98.00;;;;;;5052602;28;20456;-66
2023/07/31 06:50:15;;;;;;;2.77;2.20;;;18.60;98.00;;;;;;5054689;28;20453;-65
2023/07/31 06:52:42;;;;;;;2.80;2.10;;;18.70;98.00;;;;;;5055629;28;20461;-66
2023/07/31 06:55:21;;;;;;;4.27;2.10;;;18.70;98.00;;;;;;5055886;28;20458;-68
2023/07/31 06:57:48;;;;;;;3.93;2.70;;;18.70;98.00;;;;;;5055788;28;20580;-66
2023/07/31 07:00:16;;;;;;;3.53;2.37;;;18.80;98.00;;;;;;5055937;28;20449;-65
2023/07/31 07:02:43;;;;;;;2.53;2.00;;;18.80;98.00;;;;;;5055690;28;20472;-66
2023/07/31 07:05:10;;;;;;;2.60;2.10;;;18.80;98.00;;;;;;5055548;28;20835;-65
2023/07/31 07:07:37;;;;;;;9.03;2.17;;;18.80;98.00;;;;;;5055456;28;20811;-66
2023/07/31 07:10:06;;;;;;;3.97;2.27;;;18.70;98.00;;;;;;5055693;28;20458;-65
2023/07/31 07:12:35;;;;;;;3.50;2.27;;;18.80;98.00;;;;;;5053993;28;20511;-67
2023/07/31 07:15:03;;;;;;;3.50;2.23;;;19.00;98.00;;;;;;5054511;28;21147;-66
2023/07/31 07:17:31;;;;;;;2.47;2.10;;;19.10;98.00;;;;;;5054437;28;20481;-66
2023/07/31 07:19:59;;;;;;;2.83;2.10;;;19.10;98.00;;;;;;5054436;28;20558;-66
2023/07/31 07:22:26;;;;;;;3.60;2.33;;;19.20;98.00;;;;;;5053939;28;20465;-67
2023/07/31 07:24:54;;;;;;;2.43;1.80;;;19.40;98.00;;;;;;5053726;28;20458;-66
2023/07/31 07:27:21;;;;;;;4.97;2.37;;;19.50;98.00;;;;;;5054203;28;20518;-63
2023/07/31 07:29:52;;;;;;;3.10;2.20;;;19.70;98.00;;;;;;5054269;28;20450;-63
2023/07/31 07:32:20;;;;;;;3.20;2.10;;;19.80;98.00;;;;;;5054140;28;20485;-63
2023/07/31 07:34:48;;;;;;;3.30;2.13;;;19.90;98.00;;;;;;5054183;28;20511;-63
2023/07/31 07:37:15;;;;;;;4.10;2.60;;;20.00;98.00;;;;;;5053818;28;20473;-62
2023/07/31 07:39:43;;;;;;;3.43;2.33;;;20.10;98.00;;;;;;5053867;28;20448;-66
2023/07/31 07:42:10;;;;;;;3.10;2.27;;;20.20;98.00;;;;;;5052796;28;20446;-66
2023/07/31 07:44:40;;;;;;;2.73;1.93;;;20.10;98.00;;;;;;5054013;28;20459;-66
2023/07/31 07:47:08;;;;;;;4.03;2.27;;;20.10;98.00;;;;;;5052887;28;20456;-65
2023/07/31 07:49:36;;;;;;;2.80;2.00;;;20.00;98.00;;;;;;5054121;28;20453;-66
2023/07/31 07:52:04;;;;;;;5.30;2.40;;;20.00;98.00;;;;;;5053939;28;20454;-66
2023/07/31 07:54:32;;;;;;;11.43;2.40;;;20.10;98.00;;;;;;5053860;28;20865;-66
2023/07/31 07:56:59;;;;;;;4.53;2.33;;;20.10;98.00;;;;;;5053704;28;20449;-65
2023/07/31 07:59:26;;;;;;;2.90;2.13;;;20.10;98.00;;;;;;5052861;28;20878;-66
2023/07/31 08:01:53;;;;;;;2.60;2.07;;;20.20;98.00;;;;;;5053744;28;20458;-66
2023/07/31 08:04:21;;;;;;;4.47;2.27;;;20.20;98.00;;;;;;5053324;28;20968;-66
2023/07/31 08:06:49;;;;;;;3.70;2.27;;;20.30;98.00;;;;;;5033765;28;20458;-66
2023/07/31 08:09:17;;;;;;;5.80;2.60;;;20.40;98.00;;;;;;5032603;28;20462;-65
2023/07/31 08:11:44;;;;;;;7.53;2.47;;;20.50;98.00;;;;;;5040066;28;20870;-66
2023/07/31 08:14:11;;;;;;;3.80;2.27;;;20.60;98.00;;;;;;5052156;28;20518;-65
2023/07/31 08:16:38;;;;;;;3.43;2.23;;;20.70;98.00;;;;;;5053334;28;20457;-66
2023/07/31 08:19:05;;;;;;;6.60;2.67;;;20.60;98.00;;;;;;5053037;28;20489;-66
2023/07/31 08:21:34;;;;;;;4.77;2.40;;;20.70;98.00;;;;;;5059399;28;20462;-67
2023/07/31 08:24:01;;;;;;;5.00;2.40;;;20.70;98.00;;;;;;5066916;28;20458;-67
2023/07/31 08:26:28;;;;;;;4.77;2.40;;;20.80;98.00;;;;;;5053423;28;20783;-67
2023/07/31 08:28:55;;;;;;;5.70;2.33;;;20.90;98.00;;;;;;5053437;28;20942;-67
2023/07/31 08:31:23;;;;;;;6.23;2.40;;;21.00;98.00;;;;;;5053219;28;20984;-67
2023/07/31 08:33:50;;;;;;;4.13;2.10;;;20.80;98.00;;;;;;5053058;28;20450;-66
2023/07/31 08:36:17;;;;;;;3.77;2.43;;;20.90;98.00;;;;;;5053100;28;20458;-66
2023/07/31 08:38:46;;;;;;;5.20;2.50;;;21.00;98.00;;;;;;5051348;28;20496;-65
2023/07/31 08:41:14;;;;;;;3.50;2.30;;;21.10;98.00;;;;;;5053718;28;20510;-66
2023/07/31 08:43:41;;;;;;;3.87;2.30;;;21.30;98.00;;;;;;5053760;28;20489;-65
2023/07/31 08:46:09;;;;;;;3.20;2.33;;;21.50;98.00;;;;;;5052887;28;20476;-66
2023/07/31 08:48:38;;;;;;;4.30;2.10;;;21.50;98.00;;;;;;5053764;28;20492;-65
2023/07/31 08:51:05;;;;;;;4.63;2.30;;;21.70;98.00;;;;;;5034221;28;20454;-65
2023/07/31 08:53:32;;;;;;;5.20;2.43;;;21.80;98.00;;;;;;5033260;28;20461;-65
2023/07/31 08:56:01;;;;;;;4.43;2.40;;;21.90;98.00;;;;;;5033172;28;20458;-66
2023/07/31 08:58:32;;;;;;;3.33;2.30;;;22.00;98.00;;;;;;5031434;28;21000;-65
2023/07/31 09:01:02;;;;;;;3.97;2.50;;;22.00;98.00;;;;;;5033039;28;20461;-66
2023/07/31 09:03:31;;;;;;;4.63;2.37;;;22.10;98.00;;;;;;5033575;28;20451;-66
2023/07/31 09:05:59;;;;;;;4.17;2.87;;;22.10;98.00;;;;;;5033513;28;20504;-66
2023/07/31 09:08:30;;;;;;;4.30;2.20;;;22.20;98.00;;;;;;5031967;28;20533;-65
2023/07/31 09:11:03;;;;;;;3.40;2.20;;;22.20;98.00;;;;;;5032300;28;20458;-65
2023/07/31 09:13:31;;;;;;;3.57;2.17;;;22.20;98.00;;;;;;5033082;28;20457;-65
2023/07/31 09:15:58;;;;;;;4.63;2.30;;;22.50;98.00;;;;;;5032799;28;20553;-65
2023/07/31 09:18:26;;;;;;;4.67;2.20;;;22.60;98.00;;;;;;5033042;28;20494;-66
2023/07/31 09:21:02;;;;;;;3.33;2.17;;;22.70;98.00;;;;;;5032762;28;20458;-65
2023/07/31 09:23:41;;;;;;;4.97;2.70;;;22.80;98.00;;;;;;5031658;28;20451;-66
2023/07/31 09:26:10;;;;;;;4.80;2.70;;;22.90;98.00;;;;;;5035050;28;20469;-66
2023/07/31 09:28:37;;;;;;;3.30;2.20;;;22.90;98.00;;;;;;5052656;28;20457;-67
2023/07/31 09:31:04;;;;;;;4.30;2.30;;;23.10;98.00;;;;;;5051279;28;20454;-66
2023/07/31 09:33:32;;;;;;;3.67;2.10;;;23.10;98.00;;;;;;5052523;28;20465;-66
2023/07/31 09:36:00;;;;;;;5.33;2.27;;;23.20;98.00;;;;;;5051690;28;20540;-66
2023/07/31 09:38:32;;;;;;;3.60;2.20;;;23.10;98.00;;;;;;5051961;28;20580;-66
2023/07/31 09:41:00;;;;;;;3.37;2.23;;;23.20;98.00;;;;;;5051231;28;20466;-66
2023/07/31 09:43:29;;;;;;;4.00;2.10;;;23.40;98.00;;;;;;5052466;28;20453;-66
2023/07/31 09:45:58;;;;;;;5.30;2.60;;;23.50;98.00;;;;;;5052322;28;20500;-66
2023/07/31 09:48:27;;;;;;;5.57;2.63;;;23.40;98.00;;;;;;5050954;28;20462;-64
2023/07/31 09:50:56;;;;;;;4.03;2.40;;;23.50;98.00;;;;;;5051850;28;20482;-71
2023/07/31 09:53:30;;;;;;;4.00;2.53;;;23.50;97.70;;;;;;5051388;28;20948;-67
2023/07/31 09:55:59;;;;;;;4.03;2.40;;;23.60;97.50;;;;;;5051840;28;20478;-66
2023/07/31 09:58:30;;;;;;;6.67;2.37;;;23.30;97.50;;;;;;5051931;28;20485;-67
2023/07/31 10:01:00;;;;;;;2.83;2.20;;;23.40;98.00;;;;;;5051855;28;20503;-66
2023/07/31 10:03:28;;;;;;;6.97;2.97;;;23.50;97.60;;;;;;5051316;28;21006;-66
2023/07/31 10:05:59;;;;;;;3.63;2.23;;;23.40;98.00;;;;;;5051969;28;20940;-66
2023/07/31 10:08:30;;;;;;;3.50;2.10;;;23.50;98.00;;;;;;5034414;28;20450;-66
2023/07/31 10:11:00;;;;;;;5.10;2.40;;;23.70;98.00;;;;;;5051506;28;20481;-67
2023/07/31 10:13:30;;;;;;;5.67;2.47;;;23.90;98.00;;;;;;5052086;28;20446;-67
2023/07/31 10:16:00;;;;;;;4.00;2.50;;;24.10;97.40;;;;;;5051612;28;20500;-65
2023/07/31 10:18:28;;;;;;;4.00;2.47;;;24.10;95.80;;;;;;5051794;28;20504;-65
2023/07/31 10:20:56;;;;;;;3.37;2.30;;;24.10;95.20;;;;;;5051784;28;20473;-65
2023/07/31 10:23:25;;;;;;;3.43;2.10;;;24.00;95.60;;;;;;5051290;28;20442;-65
2023/07/31 10:25:54;;;;;;;4.63;2.63;;;23.90;97.60;;;;;;5051801;28;20533;-65
2023/07/31 10:28:22;;;;;;;3.77;2.30;;;23.70;96.90;;;;;;5051410;28;20493;-65
2023/07/31 10:30:52;;;;;;;5.03;2.63;;;23.50;97.00;;;;;;5051805;28;20449;-65
2023/07/31 10:33:22;;;;;;;5.77;2.57;;;23.40;96.50;;;;;;5051508;28;20932;-66
2023/07/31 10:35:51;;;;;;;3.70;2.10;;;23.40;98.00;;;;;;5050380;28;20465;-65
2023/07/31 10:38:18;;;;;;;4.37;2.47;;;23.30;97.60;;;;;;5051176;28;21016;-66
2023/07/31 10:40:45;;;;;;;4.33;2.40;;;23.50;98.00;;;;;;5051441;28;20460;-66
2023/07/31 10:43:26;;;;;;;4.20;2.60;;;23.70;98.00;;;;;;5051700;28;20827;-66
2023/07/31 10:45:54;;;;;;;6.10;2.30;;;23.80;97.10;;;;;;5051810;28;20453;-66
2023/07/31 10:48:22;;;;;;;4.47;2.50;;;23.90;98.00;;;;;;5051452;28;20808;-65
2023/07/31 10:50:51;;;;;;;5.03;2.80;;;24.00;97.70;;;;;;5051877;28;20446;-66
2023/07/31 10:53:25;;;;;;;3.37;2.23;;;24.00;97.60;;;;;;5051524;28;20463;-65
2023/07/31 10:55:52;;;;;;;2.93;2.20;;;23.90;97.20;;;;;;5051900;28;20940;-66
2023/07/31 10:58:21;;;;;;;6.03;2.47;;;23.80;96.30;;;;;;5051388;28;20454;-66
2023/07/31 11:00:51;;;;;;;5.33;2.70;;;24.00;96.30;;;;;;5051407;28;20898;-66
2023/07/31 11:03:21;;;;;;;6.80;2.80;;;24.30;96.10;;;;;;5050899;28;21026;-65
2023/07/31 11:05:54;;;;;;;3.80;2.20;;;24.60;94.60;;;;;;5050422;28;20461;-66
2023/07/31 11:08:23;;;;;;;3.47;2.50;;;24.50;94.60;;;;;;5050555;28;20512;-65
2023/07/31 11:10:53;;;;;;;3.93;2.43;;;24.20;96.10;;;;;;5050848;28;20829;-65
2023/07/31 11:13:20;;;;;;;4.43;2.30;;;24.00;96.10;;;;;;5050672;28;20460;-65
2023/07/31 11:15:48;;;;;;;4.37;2.57;;;24.00;96.40;;;;;;5050625;28;20454;-66
2023/07/31 11:18:16;;;;;;;4.27;2.60;;;24.20;95.80;;;;;;5050223;28;20619;-66
2023/07/31 11:20:45;;;;;;;4.23;2.27;;;24.70;96.00;;;;;;5050818;28;20483;-66
2023/07/31 11:23:13;;;;;;;3.50;2.30;;;24.70;95.20;;;;;;5050580;28;20450;-66
2023/07/31 11:25:41;;;;;;;5.67;2.70;;;25.00;94.90;;;;;;5050527;28;20453;-66
2023/07/31 11:28:10;;;;;;;3.27;2.40;;;25.00;94.30;;;;;;5050603;28;20519;-66
2023/07/31 11:30:39;;;;;;;3.73;2.30;;;25.10;94.20;;;;;;5049499;28;20492;-66
2023/07/31 11:33:08;;;;;;;6.43;2.50;;;25.60;93.50;;;;;;5050310;28;20543;-65
2023/07/31 11:35:37;;;;;;;5.37;2.80;;;25.90;93.00;;;;;;5052969;28;20458;-69
2023/07/31 11:38:05;;;;;;;4.53;2.60;;;26.20;91.70;;;;;;5054160;28;20458;-69
2023/07/31 11:40:42;;;;;;;6.87;2.53;;;26.00;90.90;;;;;;5054313;28;20485;-70
2023/07/31 11:43:11;;;;;;;5.10;2.60;;;25.60;91.60;;;;;;5053965;28;20464;-69
2023/07/31 11:45:39;;;;;;;6.40;2.30;;;25.20;91.70;;;;;;5054269;28;20445;-70
2023/07/31 11:48:06;;;;;;;5.10;2.60;;;24.90;92.80;;;;;;5054221;28;20465;-70
2023/07/31 11:50:35;;;;;;;4.43;2.50;;;24.70;94.20;;;;;;5054230;28;20452;-70
2023/07/31 11:53:05;;;;;;;3.33;2.60;;;24.60;94.00;;;;;;5054492;28;20446;-65
2023/07/31 11:55:34;;;;;;;4.60;2.50;;;24.40;94.50;;;;;;5053876;28;20464;-65
2023/07/31 11:58:01;;;;;;;4.07;2.50;;;24.20;94.10;;;;;;5054107;28;20868;-65
2023/07/31 12:00:29;;;;;;;6.13;2.60;;;24.10;94.70;;;;;;5054112;28;20481;-65
2023/07/31 12:02:56;;;;;;;5.53;2.50;;;24.00;95.10;;;;;;5053832;28;20454;-65
2023/07/31 12:05:24;;;;;;;4.30;2.50;;;23.90;95.80;;;;;;5053994;28;20461;-65
2023/07/31 12:07:52;;;;;;;3.87;2.47;;;23.90;96.10;;;;;;5053582;28;20489;-65
2023/07/31 12:10:27;;;;;;;5.80;2.90;;;23.90;95.80;;;;;;5053997;28;20523;-65
2023/07/31 12:13:04;;;;;;;3.80;2.30;;;23.90;95.70;;;;;;5053705;28;20540;-66
2023/07/31 12:15:38;;;;;;;3.20;2.30;;;23.80;95.50;;;;;;5054102;28;20453;-65
2023/07/31 12:18:06;;;;;;;4.20;2.37;;;23.80;97.00;;;;;;5053892;28;20485;-65
2023/07/31 12:20:34;;;;;;;4.37;2.40;;;24.10;97.60;;;;;;5053632;28;21011;-66
2023/07/31 12:23:01;;;;;;;4.03;2.30;;;24.20;94.90;;;;;;5052666;28;20496;-65
2023/07/31 12:25:33;;;;;;;4.37;2.60;;;24.30;97.00;;;;;;5053872;28;20844;-66
2023/07/31 12:28:11;;;;;;;3.70;2.40;;;24.30;96.50;;;;;;5053193;28;20465;-66
2023/07/31 12:30:39;;;;;;;3.60;2.30;;;24.20;96.70;;;;;;5054022;28;20452;-65
2023/07/31 12:33:08;;;;;;;7.60;2.70;;;24.00;96.30;;;;;;5053586;28;20451;-66
2023/07/31 12:35:47;;;;;;;6.23;2.93;;;24.10;96.60;;;;;;5053111;28;20821;-66
2023/07/31 12:38:14;;;;;;;5.23;2.70;;;24.10;97.60;;;;;;5053825;28;21039;-66
2023/07/31 12:40:42;;;;;;;4.10;2.30;;;24.10;96.00;;;;;;5053740;28;21045;-66
2023/07/31 12:43:11;;;;;;;6.70;2.73;;;24.00;96.40;;;;;;5054326;28;20460;-65
2023/07/31 12:45:38;;;;;;;4.67;2.90;;;23.80;97.20;;;;;;5053972;28;20458;-66
2023/07/31 12:48:08;;;;;;;3.17;2.30;;;23.80;97.50;;;;;;5054360;28;20460;-66
2023/07/31 12:50:36;;;;;;;4.60;2.70;;;23.70;98.00;;;;;;5054241;28;20446;-65
2023/07/31 12:53:04;;;;;;;3.80;2.37;;;23.80;97.90;;;;;;5052738;28;20789;-66